createdAt,value
2023-04-02T00:01:29.013Z,95620.28
2023-04-02T00:04:30.108Z,95611.88
2023-04-02T00:07:31.234Z,95616.75
2023-04-02T00:10:31.804Z,95625.94
2023-04-02T00:13:29.764Z,95625.63
2023-04-02T00:16:23.951Z,95622.34
2023-04-02T00:19:19.736Z,95634.22
2023-04-02T00:22:14.691Z,95634.47
2023-04-02T00:25:14.125Z,95628.72
2023-04-02T00:28:04.957Z,95633.66
2023-04-02T00:30:56.227Z,95633.94
2023-04-02T00:33:46.155Z,95635.03
2023-04-02T00:36:36.899Z,95632.84
2023-04-02T00:39:28.662Z,95646.06
2023-04-02T00:42:20.586Z,95639.88
2023-04-02T00:45:19.591Z,95635.53
2023-04-02T00:48:25.899Z,95637.16
2023-04-02T00:51:20.980Z,95616.56
2023-04-02T00:54:15.768Z,95635.28
2023-04-02T00:57:04.950Z,95632.84
2023-04-02T01:00:01.257Z,95634.38
2023-04-02T01:03:28.931Z,95634.22
2023-04-02T01:06:19.248Z,95625.72
2023-04-02T01:09:26.491Z,95641.41
2023-04-02T01:12:34.357Z,95636.13
2023-04-02T01:15:30.766Z,95645.44
2023-04-02T01:18:46.391Z,95634.28
2023-04-02T01:21:43.657Z,95643.03
2023-04-02T01:24:34.737Z,95645.44
2023-04-02T01:27:29.059Z,95636.19
2023-04-02T01:30:20.810Z,95636.13
2023-04-02T01:33:09.540Z,95638.56
2023-04-02T01:36:08.149Z,95631.78
2023-04-02T01:39:05.603Z,95643.72
2023-04-02T01:42:03.929Z,95648.56
2023-04-02T01:44:54.805Z,95651.00
2023-04-02T01:47:46.291Z,95657.78
2023-04-02T01:50:38.024Z,95647.22
2023-04-02T01:53:30.788Z,95651.91
2023-04-02T01:56:20.083Z,95661.88
2023-04-02T01:59:11.345Z,95654.25
2023-04-02T02:02:05.764Z,95654.50
2023-04-02T02:04:59.480Z,95655.25
2023-04-02T02:07:49.570Z,95656.56
2023-04-02T02:10:41.138Z,95665.56
2023-04-02T02:13:29.876Z,95650.34
2023-04-02T02:16:20.416Z,95666.88
2023-04-02T02:19:20.276Z,95666.53
2023-04-02T02:22:18.529Z,95655.66
2023-04-02T02:25:15.499Z,95669.56
2023-04-02T02:28:08.916Z,95669.75
2023-04-02T02:31:02.045Z,95673.81
2023-04-02T02:33:53.849Z,95675.19
2023-04-02T02:36:50.747Z,95680.13
2023-04-02T02:39:44.663Z,95667.84
2023-04-02T02:42:40.434Z,95681.19
2023-04-02T02:45:34.849Z,95686.34
2023-04-02T02:48:29.000Z,95683.06
2023-04-02T02:51:24.658Z,95686.59
2023-04-02T02:54:15.732Z,95697.13
2023-04-02T02:57:11.139Z,95698.50
2023-04-02T03:00:05.594Z,95702.84
2023-04-02T03:02:58.156Z,95709.00
2023-04-02T03:05:53.756Z,95713.63
2023-04-02T03:08:46.509Z,95714.97
2023-04-02T03:11:43.806Z,95713.16
2023-04-02T03:14:44.210Z,95717.75
2023-04-02T03:17:37.998Z,95726.66
2023-04-02T03:20:38.314Z,95705.63
2023-04-02T03:23:31.025Z,95729.69
2023-04-02T03:26:24.416Z,95740.47
2023-04-02T03:29:19.834Z,95737.53
2023-04-02T03:32:15.961Z,95746.22
2023-04-02T03:35:17.164Z,95738.94
2023-04-02T03:38:13.080Z,95738.69
2023-04-02T03:41:13.279Z,95744.59
2023-04-02T03:44:08.088Z,95740.56
2023-04-02T03:46:59.949Z,95748.41
2023-04-02T03:49:58.818Z,95754.38
2023-04-02T03:52:49.966Z,95755.22
2023-04-02T03:55:41.868Z,95758.66
2023-04-02T03:58:39.716Z,95729.28
2023-04-02T04:01:34.864Z,95761.34
2023-04-02T04:04:28.344Z,95766.25
2023-04-02T04:07:24.094Z,95769.19
2023-04-02T04:10:19.644Z,95769.44
2023-04-02T04:13:12.403Z,95778.69
2023-04-02T04:16:08.360Z,95781.88
2023-04-02T04:19:05.497Z,95785.66
2023-04-02T04:22:11.028Z,95791.03
2023-04-02T04:25:03.903Z,95785.91
2023-04-02T04:28:05.615Z,95784.25
2023-04-02T04:31:02.890Z,95787.78
2023-04-02T04:34:03.960Z,95789.31
2023-04-02T04:37:02.120Z,95807.56
2023-04-02T04:40:00.215Z,95805.56
2023-04-02T04:42:54.094Z,95806.16
2023-04-02T04:45:47.260Z,95752.13
2023-04-02T04:48:48.232Z,95815.66
2023-04-02T04:51:43.770Z,95812.69
2023-04-02T04:54:33.236Z,95805.00
2023-04-02T04:57:31.748Z,95813.44
2023-04-02T05:00:27.812Z,95824.25
2023-04-02T05:03:29.077Z,95822.09
2023-04-02T05:06:33.377Z,95830.47
2023-04-02T05:09:30.597Z,95832.91
2023-04-02T05:12:28.137Z,95837.25
2023-04-02T05:15:22.976Z,95838.88
2023-04-02T05:18:27.221Z,95838.88
2023-04-02T05:21:21.644Z,95841.00
2023-04-02T05:24:38.402Z,95848.84
2023-04-02T05:27:34.654Z,95836.81
2023-04-02T05:30:53.056Z,95841.88
2023-04-02T05:33:48.487Z,95854.66
2023-04-02T05:36:39.585Z,95867.44
2023-04-02T05:39:29.725Z,95856.41
2023-04-02T05:42:24.809Z,95869.66
2023-04-02T05:45:28.523Z,95866.06
2023-04-02T05:48:23.109Z,95868.78
2023-04-02T05:51:20.317Z,95873.00
2023-04-02T05:54:23.641Z,95876.88
2023-04-02T05:57:29.605Z,95877.75
2023-04-02T06:00:47.610Z,95880.72
2023-04-02T06:03:48.757Z,95877.47
2023-04-02T06:06:52.418Z,95893.88
2023-04-02T06:09:48.104Z,95892.47
2023-04-02T06:12:42.074Z,95901.38
2023-04-02T06:15:34.789Z,95901.03
2023-04-02T06:18:31.278Z,95904.91
2023-04-02T06:21:23.877Z,95911.59
2023-04-02T06:24:19.345Z,95906.94
2023-04-02T06:27:16.825Z,95915.13
2023-04-02T06:30:16.377Z,95917.34
2023-04-02T06:33:06.249Z,95919.56
2023-04-02T06:36:00.683Z,95931.41
2023-04-02T06:38:55.361Z,95909.38
2023-04-02T06:41:46.048Z,95929.03
2023-04-02T06:45:12.277Z,95945.34
2023-04-02T06:48:17.107Z,95946.72
2023-04-02T06:51:10.368Z,95957.78
2023-04-02T06:54:00.061Z,95947.59
2023-04-02T06:56:53.201Z,95966.56
2023-04-02T06:59:57.238Z,95952.88
2023-04-02T07:02:48.353Z,95964.69
2023-04-02T07:05:37.289Z,95970.44
2023-04-02T07:08:27.129Z,95962.22
2023-04-02T07:11:18.237Z,95974.19
2023-04-02T07:14:13.547Z,95962.47
2023-04-02T07:17:03.010Z,95976.09
2023-04-02T07:19:52.748Z,95988.59
2023-04-02T07:22:42.632Z,95990.25
2023-04-02T07:25:31.778Z,95996.94
2023-04-02T07:28:22.659Z,96001.53
2023-04-02T07:31:19.347Z,95997.69
2023-04-02T07:34:08.806Z,95994.88
2023-04-02T07:36:57.482Z,96006.59
2023-04-02T07:39:46.252Z,96011.19
2023-04-02T07:42:34.930Z,96018.09
2023-04-02T07:45:23.608Z,96001.47
2023-04-02T07:48:16.364Z,96006.63
2023-04-02T07:51:06.034Z,96019.84
2023-04-02T07:53:56.492Z,96030.09
2023-04-02T07:56:45.393Z,96021.66
2023-04-02T07:59:34.842Z,96029.03
2023-04-02T08:02:24.404Z,96038.19
2023-04-02T08:05:15.573Z,96037.25
2023-04-02T08:08:04.547Z,96040.25
2023-04-02T08:10:56.529Z,96029.47
2023-04-02T08:13:45.443Z,96043.31
2023-04-02T08:16:46.434Z,96053.31
2023-04-02T08:19:44.408Z,96052.69
2023-04-02T08:22:42.944Z,96050.97
2023-04-02T08:25:31.628Z,96052.25
2023-04-02T08:28:21.665Z,96055.56
2023-04-02T08:31:11.081Z,96062.09
2023-04-02T08:34:01.623Z,96067.75
2023-04-02T08:36:50.609Z,96068.91
2023-04-02T08:39:42.266Z,96072.28
2023-04-02T08:42:38.738Z,96074.28
2023-04-02T08:45:40.259Z,96081.69
2023-04-02T08:48:31.894Z,96088.50
2023-04-02T08:51:25.137Z,96000.06
2023-04-02T08:54:20.490Z,96069.34
2023-04-02T08:57:22.425Z,96094.44
2023-04-02T09:00:27.463Z,96102.56
2023-04-02T09:03:19.504Z,96087.28
2023-04-02T09:06:14.290Z,96096.00
2023-04-02T09:09:05.037Z,96071.97
2023-04-02T09:11:56.348Z,96100.81
2023-04-02T09:14:53.144Z,96086.84
2023-04-02T09:17:53.110Z,96095.75
2023-04-02T09:20:43.664Z,96105.00
2023-04-02T09:23:33.298Z,96113.38
2023-04-02T09:26:25.082Z,96112.88
2023-04-02T09:29:41.780Z,96117.31
2023-04-02T09:32:51.342Z,96119.88
2023-04-02T09:35:56.479Z,96113.22
2023-04-02T09:38:58.684Z,96135.28
2023-04-02T09:41:59.041Z,96118.50
2023-04-02T09:44:53.908Z,96118.88
2023-04-02T09:47:43.456Z,96135.88
2023-04-02T09:50:35.118Z,96130.72
2023-04-02T09:53:34.490Z,96141.97
2023-04-02T09:56:26.531Z,96134.91
2023-04-02T09:59:17.908Z,96135.97
2023-04-02T10:02:25.397Z,96153.94
2023-04-02T10:05:30.073Z,96154.13
2023-04-02T10:08:30.252Z,96157.78
2023-04-02T10:11:22.990Z,96164.38
2023-04-02T10:14:21.508Z,96162.72
2023-04-02T10:17:16.693Z,96157.88
2023-04-02T10:20:18.675Z,96167.28
2023-04-02T10:23:16.767Z,96166.25
2023-04-02T10:26:20.470Z,96169.13
2023-04-02T10:29:21.406Z,96170.63
2023-04-02T10:32:15.775Z,96171.47
2023-04-02T10:35:11.453Z,96172.03
2023-04-02T10:38:28.539Z,96162.34
2023-04-02T10:41:44.591Z,96170.41
2023-04-02T10:44:43.940Z,96170.63
2023-04-02T10:47:41.552Z,96166.56
2023-04-02T10:50:37.602Z,96179.75
2023-04-02T10:53:38.179Z,96176.31
2023-04-02T10:56:29.786Z,96180.50
2023-04-02T10:59:26.131Z,96186.66
2023-04-02T11:02:32.288Z,96187.66
2023-04-02T11:05:29.220Z,96186.06
2023-04-02T11:08:21.886Z,96192.41
2023-04-02T11:11:15.609Z,96189.44
2023-04-02T11:14:11.557Z,96194.28
2023-04-02T11:17:04.274Z,96192.88
2023-04-02T11:19:55.093Z,96194.19
2023-04-02T11:22:44.554Z,96200.50
2023-04-02T11:25:33.498Z,96208.53
2023-04-02T11:28:29.491Z,96195.16
2023-04-02T11:31:21.958Z,96202.09
2023-04-02T11:34:17.150Z,96209.41
2023-04-02T11:37:10.424Z,96210.31
2023-04-02T11:40:00.564Z,96207.72
2023-04-02T11:42:51.300Z,96213.94
2023-04-02T11:45:55.350Z,96218.19
2023-04-02T11:48:46.162Z,96213.78
2023-04-02T11:51:56.615Z,96214.50
2023-04-02T11:55:01.339Z,96214.38
2023-04-02T11:58:20.928Z,96221.44
2023-04-02T12:01:46.225Z,96222.25
2023-04-02T12:05:04.280Z,96226.28
2023-04-02T12:08:07.918Z,96227.78
2023-04-02T12:10:59.595Z,96230.47
2023-04-02T12:13:52.858Z,96236.84
2023-04-02T12:16:42.471Z,96232.25
2023-04-02T12:19:32.866Z,96243.19
2023-04-02T12:22:24.847Z,96251.56
2023-04-02T12:25:29.209Z,96253.19
2023-04-02T12:28:22.894Z,96245.31
2023-04-02T12:31:16.616Z,96257.44
2023-04-02T12:34:06.292Z,96263.09
2023-04-02T12:36:59.564Z,96262.13
2023-04-02T12:39:55.295Z,96265.41
2023-04-02T12:42:46.723Z,96271.50
2023-04-02T12:45:36.632Z,96283.25
2023-04-02T12:48:28.281Z,96286.78
2023-04-02T12:51:17.700Z,96293.06
2023-04-02T12:54:08.341Z,96289.03
2023-04-02T12:57:37.982Z,96289.84
2023-04-02T13:00:34.862Z,96287.31
2023-04-02T13:03:23.841Z,96287.13
2023-04-02T13:06:24.820Z,96293.66
2023-04-02T13:09:31.304Z,96292.19
2023-04-02T13:12:29.905Z,96298.84
2023-04-02T13:15:23.358Z,96300.69
2023-04-02T13:18:22.325Z,96303.28
2023-04-02T13:21:28.570Z,96309.66
2023-04-02T13:24:20.242Z,96307.09
2023-04-02T13:27:12.173Z,96313.03
2023-04-02T13:30:09.490Z,96312.59
2023-04-02T13:32:59.833Z,96322.84
2023-04-02T13:35:49.962Z,96322.84
2023-04-02T13:38:39.394Z,96318.47
2023-04-02T13:41:30.306Z,96324.50
2023-04-02T13:44:23.061Z,96323.88
2023-04-02T13:47:15.317Z,96329.44
2023-04-02T13:50:05.072Z,96330.47
2023-04-02T13:52:59.133Z,96332.47
2023-04-02T13:55:48.617Z,96333.03
2023-04-02T13:58:37.808Z,96333.84
2023-04-02T14:01:27.686Z,96342.53
2023-04-02T14:04:22.849Z,96345.94
2023-04-02T14:07:30.079Z,96344.88
2023-04-02T14:10:32.400Z,96339.88
2023-04-02T14:13:45.051Z,96356.22
2023-04-02T14:16:48.845Z,96364.47
2023-04-02T14:19:55.537Z,96372.13
2023-04-02T14:23:02.652Z,96356.47
2023-04-02T14:25:58.125Z,96343.91
2023-04-02T14:28:58.113Z,96356.84
2023-04-02T14:31:54.593Z,96362.25
2023-04-02T14:34:51.754Z,96375.06
2023-04-02T14:37:47.237Z,96364.38
2023-04-02T14:40:40.477Z,96377.41
2023-04-02T14:43:39.309Z,96380.81
2023-04-02T14:46:29.924Z,96390.47
2023-04-02T14:49:25.574Z,96399.06
2023-04-02T14:52:18.333Z,96390.72
2023-04-02T14:55:16.276Z,96405.09
2023-04-02T14:58:10.836Z,96402.38
2023-04-02T15:01:05.105Z,96411.75
2023-04-02T15:03:59.445Z,96411.56
2023-04-02T15:06:52.940Z,96387.66
2023-04-02T15:09:46.205Z,96412.81
2023-04-02T15:12:38.814Z,96425.63
2023-04-02T15:15:41.367Z,96387.06
2023-04-02T15:18:31.408Z,96432.47
2023-04-02T15:21:55.968Z,96436.00
2023-04-02T15:24:57.353Z,96429.63
2023-04-02T15:27:58.939Z,96446.28
2023-04-02T15:30:52.680Z,96456.38
2023-04-02T15:33:51.327Z,96450.84
2023-04-02T15:37:08.854Z,96453.44
2023-04-02T15:40:09.011Z,96457.66
2023-04-02T15:43:08.843Z,96468.34
2023-04-02T15:46:13.262Z,96474.06
2023-04-02T15:49:16.398Z,96470.97
2023-04-02T15:52:10.742Z,96480.81
2023-04-02T15:55:13.318Z,96486.75
2023-04-02T15:58:25.224Z,96495.75
2023-04-02T16:01:25.872Z,96498.16
2023-04-02T16:04:35.683Z,96499.53
2023-04-02T16:07:47.842Z,96509.97
2023-04-02T16:10:42.677Z,96513.41
2023-04-02T16:13:34.292Z,96513.84
2023-04-02T16:16:31.846Z,96516.56
2023-04-02T16:19:26.933Z,96525.91
2023-04-02T16:22:21.919Z,96528.66
2023-04-02T16:25:19.206Z,96525.63
2023-04-02T16:28:17.579Z,96531.47
2023-04-02T16:31:11.720Z,96529.13
2023-04-02T16:34:08.980Z,96542.25
2023-04-02T16:37:06.261Z,96544.97
2023-04-02T16:40:05.653Z,96547.91
2023-04-02T16:43:01.442Z,96558.53
2023-04-02T16:45:57.439Z,96563.09
2023-04-02T16:48:52.921Z,96567.88
2023-04-02T16:51:50.890Z,96572.72
2023-04-02T16:54:48.959Z,96558.97
2023-04-02T16:57:49.177Z,96586.50
2023-04-02T17:00:43.441Z,96580.72
2023-04-02T17:03:51.125Z,96587.00
2023-04-02T17:06:43.301Z,96595.13
2023-04-02T17:09:39.440Z,96591.84
2023-04-02T17:12:40.025Z,96601.16
2023-04-02T17:15:34.236Z,96606.19
2023-04-02T17:18:26.462Z,96600.03
2023-04-02T17:21:18.744Z,96591.03
2023-04-02T17:24:19.092Z,96623.72
2023-04-02T17:27:17.579Z,96625.63
2023-04-02T17:30:17.506Z,96638.66
2023-04-02T17:33:12.388Z,96635.41
2023-04-02T17:36:25.214Z,96630.47
2023-04-02T17:39:21.243Z,96642.28
2023-04-02T17:42:16.576Z,96649.56
2023-04-02T17:45:15.910Z,96649.19
2023-04-02T17:48:13.196Z,96662.88
2023-04-02T17:51:17.348Z,96673.25
2023-04-02T17:54:23.044Z,96681.53
2023-04-02T17:57:35.619Z,96659.63
2023-04-02T18:00:39.804Z,96694.63
2023-04-02T18:03:55.217Z,96701.44
2023-04-02T18:06:53.428Z,96709.75
2023-04-02T18:09:47.720Z,96711.00
2023-04-02T18:12:55.676Z,96703.97
2023-04-02T18:16:03.002Z,96719.06
2023-04-02T18:19:07.151Z,96725.69
2023-04-02T18:22:00.779Z,96739.13
2023-04-02T18:25:25.036Z,96740.34
2023-04-02T18:28:39.724Z,96749.66
2023-04-02T18:31:39.107Z,96750.28
2023-04-02T18:34:40.409Z,96761.84
2023-04-02T18:37:38.327Z,96765.34
2023-04-02T18:40:36.747Z,96769.28
2023-04-02T18:43:38.193Z,96772.97
2023-04-02T18:46:40.767Z,96773.84
2023-04-02T18:49:36.804Z,96788.91
2023-04-02T18:52:27.037Z,96791.53
2023-04-02T18:55:19.891Z,96788.44
2023-04-02T18:58:14.712Z,96798.16
2023-04-02T19:01:06.941Z,96799.81
2023-04-02T19:04:02.407Z,96802.22
2023-04-02T19:06:58.550Z,96799.97
2023-04-02T19:09:49.897Z,96809.03
2023-04-02T19:12:39.085Z,96810.88
2023-04-02T19:15:35.660Z,96812.75
2023-04-02T19:18:37.148Z,96818.56
2023-04-02T19:21:36.349Z,96827.41
2023-04-02T19:24:41.709Z,96839.19
2023-04-02T19:27:38.227Z,96829.47
2023-04-02T19:30:38.786Z,96847.69
2023-04-02T19:33:44.525Z,96757.94
2023-04-02T19:36:45.867Z,96855.13
2023-04-02T19:39:54.511Z,96855.53
2023-04-02T19:42:46.024Z,96862.56
2023-04-02T19:45:38.629Z,96865.44
2023-04-02T19:48:31.784Z,96872.84
2023-04-02T19:51:21.713Z,96863.34
2023-04-02T19:54:13.827Z,96866.66
2023-04-02T19:57:04.073Z,96869.97
2023-04-02T19:59:54.854Z,96874.47
2023-04-02T20:02:43.525Z,96877.41
2023-04-02T20:05:33.148Z,96878.69
2023-04-02T20:08:22.268Z,96885.91
2023-04-02T20:11:12.421Z,96889.81
2023-04-02T20:14:01.591Z,96885.88
2023-04-02T20:16:50.274Z,96895.34
2023-04-02T20:19:39.742Z,96904.00
2023-04-02T20:22:28.867Z,96900.97
2023-04-02T20:25:17.618Z,96832.22
2023-04-02T20:28:07.743Z,96913.16
2023-04-02T20:31:07.888Z,96904.66
2023-04-02T20:33:57.362Z,96917.84
2023-04-02T20:36:47.104Z,96923.22
2023-04-02T20:39:35.847Z,96920.94
2023-04-02T20:42:25.456Z,96927.97
2023-04-02T20:45:15.856Z,96927.31
2023-04-02T20:48:05.705Z,96929.38
2023-04-02T20:50:55.508Z,96934.13
2023-04-02T20:53:44.793Z,96938.41
2023-04-02T20:56:33.439Z,96941.16
2023-04-02T20:59:22.924Z,96957.91
2023-04-02T21:02:13.269Z,96963.72
2023-04-02T21:05:03.306Z,96963.53
2023-04-02T21:07:52.552Z,96962.25
2023-04-02T21:10:41.865Z,96975.50
2023-04-02T21:13:31.075Z,96946.41
2023-04-02T21:16:22.841Z,96974.47
2023-04-02T21:19:13.200Z,96964.44
2023-04-02T21:22:03.812Z,96972.34
2023-04-02T21:24:52.567Z,96975.09
2023-04-02T21:27:41.738Z,96906.81
2023-04-02T21:30:30.507Z,96979.66
2023-04-02T21:33:21.029Z,96992.44
2023-04-02T21:36:13.213Z,96956.72
2023-04-02T21:39:05.408Z,96995.50
2023-04-02T21:41:54.815Z,96995.13
2023-04-02T21:44:44.050Z,96993.72
2023-04-02T21:47:32.790Z,96999.53
2023-04-02T21:50:22.355Z,97008.44
2023-04-02T21:53:12.525Z,96997.69
2023-04-02T21:56:03.112Z,96936.59
2023-04-02T21:58:52.693Z,96994.72
2023-04-02T22:01:43.886Z,96990.78
2023-04-02T22:04:33.532Z,97009.81
2023-04-02T22:07:22.829Z,97007.81
2023-04-02T22:10:13.022Z,96996.16
2023-04-02T22:13:02.846Z,97007.97
2023-04-02T22:15:51.528Z,97011.47
2023-04-02T22:18:42.743Z,97014.16
2023-04-02T22:21:33.029Z,97009.41
2023-04-02T22:24:22.941Z,97022.69
2023-04-02T22:27:14.516Z,96976.78
2023-04-02T22:30:03.539Z,97024.53
2023-04-02T22:32:52.289Z,97020.00
2023-04-02T22:35:41.870Z,97023.66
2023-04-02T22:38:31.742Z,97026.16
2023-04-02T22:41:22.683Z,97020.16
2023-04-02T22:44:15.904Z,97011.81
2023-04-02T22:47:05.346Z,97030.69
2023-04-02T22:49:53.980Z,97023.66
2023-04-02T22:52:43.615Z,97020.28
2023-04-02T22:55:32.314Z,97030.25
2023-04-02T22:58:24.446Z,97029.38
2023-04-02T23:01:17.880Z,97005.69
2023-04-02T23:04:07.453Z,96998.66
2023-04-02T23:06:56.254Z,97028.97
2023-04-02T23:09:46.064Z,97020.34
2023-04-02T23:12:34.762Z,97032.88
2023-04-02T23:15:24.276Z,97036.41
2023-04-02T23:18:14.307Z,97030.75
2023-04-02T23:21:05.209Z,97016.63
2023-04-02T23:23:54.991Z,97001.50
2023-04-02T23:26:43.681Z,97038.81
2023-04-02T23:29:32.781Z,97046.88
2023-04-02T23:32:21.512Z,97037.44
2023-04-02T23:35:12.700Z,97018.69
2023-04-02T23:38:01.365Z,97004.53
2023-04-02T23:40:51.149Z,96985.44
2023-04-02T23:43:41.007Z,97036.75
2023-04-02T23:46:31.593Z,97035.75
2023-04-02T23:49:21.127Z,97019.31
2023-04-02T23:52:11.691Z,97037.16
2023-04-02T23:55:00.433Z,97032.06
2023-04-02T23:57:49.544Z,97027.81
